createdAt,value
2023-02-21T00:00:05.175Z,39.30
2023-02-21T00:01:05.087Z,38.70
2023-02-21T00:02:05.163Z,40.00
2023-02-21T00:03:05.078Z,39.30
2023-02-21T00:04:05.090Z,39.50
2023-02-21T00:05:05.127Z,39.10
2023-02-21T00:06:05.118Z,39.70
2023-02-21T00:07:05.055Z,40.00
2023-02-21T00:08:05.077Z,40.00
2023-02-21T00:09:05.004Z,40.00
2023-02-21T00:10:05.006Z,40.20
2023-02-21T00:11:04.987Z,40.10
2023-02-21T00:12:04.992Z,40.40
2023-02-21T00:13:04.958Z,40.20
2023-02-21T00:14:05.018Z,40.20
2023-02-21T00:15:04.937Z,41.30
2023-02-21T00:16:04.999Z,40.10
2023-02-21T00:17:05.132Z,41.20
2023-02-21T00:18:04.935Z,42.20
2023-02-21T00:19:04.899Z,41.40
2023-02-21T00:20:04.965Z,41.00
2023-02-21T00:21:04.881Z,41.60
2023-02-21T00:22:04.879Z,41.30
2023-02-21T00:23:04.849Z,42.40
2023-02-21T00:24:04.849Z,42.20
2023-02-21T00:25:04.874Z,42.20
2023-02-21T00:26:04.883Z,42.00
2023-02-21T00:27:04.831Z,42.40
2023-02-21T00:28:04.855Z,43.30
2023-02-21T00:29:04.820Z,42.30
2023-02-21T00:30:04.832Z,42.50
2023-02-21T00:31:04.791Z,44.10
2023-02-21T00:32:04.778Z,43.60
2023-02-21T00:33:07.143Z,43.40
2023-02-21T00:34:04.775Z,43.60
2023-02-21T00:35:04.745Z,43.20
2023-02-21T00:36:04.777Z,43.20
2023-02-21T00:37:04.698Z,43.50
2023-02-21T00:38:04.708Z,42.50
2023-02-21T00:39:04.716Z,43.40
2023-02-21T00:40:04.707Z,43.20
2023-02-21T00:41:04.648Z,43.20
2023-02-21T00:42:04.670Z,43.30
2023-02-21T00:43:04.639Z,43.40
2023-02-21T00:44:04.665Z,43.20
2023-02-21T00:45:04.627Z,44.30
2023-02-21T00:46:04.644Z,44.30
2023-02-21T00:47:04.600Z,44.00
2023-02-21T00:48:04.604Z,44.50
2023-02-21T00:49:04.640Z,45.30
2023-02-21T00:50:04.603Z,45.80
2023-02-21T00:51:04.582Z,44.80
2023-02-21T00:52:04.560Z,44.90
2023-02-21T00:53:04.553Z,45.50
2023-02-21T00:54:04.525Z,45.20
2023-02-21T00:55:04.555Z,44.70
2023-02-21T00:56:04.526Z,46.30
2023-02-21T00:57:04.485Z,45.40
2023-02-21T00:58:04.489Z,45.30
2023-02-21T00:59:04.481Z,46.20
2023-02-21T01:00:04.478Z,45.80
2023-02-21T01:01:04.503Z,45.90
2023-02-21T01:02:04.488Z,45.20
2023-02-21T01:03:04.439Z,46.90
2023-02-21T01:04:04.485Z,46.80
2023-02-21T01:05:04.456Z,47.20
2023-02-21T01:06:04.441Z,45.30
2023-02-21T01:07:04.384Z,47.00
2023-02-21T01:08:04.410Z,45.40
2023-02-21T01:09:04.365Z,47.20
2023-02-21T01:10:04.374Z,46.60
2023-02-21T01:11:04.376Z,46.40
2023-02-21T01:12:04.344Z,46.00
2023-02-21T01:13:04.336Z,46.20
2023-02-21T01:14:04.338Z,46.80
2023-02-21T01:15:04.312Z,47.60
2023-02-21T01:16:04.365Z,47.10
2023-02-21T01:17:12.970Z,49.10
2023-02-21T01:18:04.313Z,47.30
2023-02-21T01:19:04.285Z,47.20
2023-02-21T01:20:04.262Z,47.00
2023-02-21T01:21:04.235Z,48.00
2023-02-21T01:22:04.248Z,47.20
2023-02-21T01:23:04.235Z,47.00
2023-02-21T01:24:04.238Z,47.30
2023-02-21T01:25:04.191Z,47.40
2023-02-21T01:26:04.220Z,48.90
2023-02-21T01:27:04.170Z,48.50
2023-02-21T01:28:04.163Z,48.50
2023-02-21T01:29:04.172Z,48.70
2023-02-21T01:30:04.233Z,48.60
2023-02-21T01:31:04.189Z,48.20
2023-02-21T01:32:04.202Z,48.40
2023-02-21T01:33:04.119Z,48.90
2023-02-21T01:34:04.107Z,48.30
2023-02-21T01:35:04.117Z,48.30
2023-02-21T01:36:04.109Z,48.30
2023-02-21T01:37:04.084Z,49.30
2023-02-21T01:38:04.091Z,49.10
2023-02-21T01:39:04.064Z,48.90
2023-02-21T01:40:04.075Z,49.00
2023-02-21T01:41:04.043Z,49.60
2023-02-21T01:42:04.056Z,50.10
2023-02-21T01:43:04.010Z,49.70
2023-02-21T01:44:04.025Z,48.50
2023-02-21T01:45:04.007Z,49.00
2023-02-21T01:46:04.026Z,49.20
2023-02-21T01:47:03.991Z,48.20
2023-02-21T01:48:03.964Z,49.50
2023-02-21T01:49:03.963Z,48.20
2023-02-21T01:50:03.959Z,48.30
2023-02-21T01:51:03.936Z,47.70
2023-02-21T01:52:03.936Z,48.20
2023-02-21T01:53:03.904Z,48.80
2023-02-21T01:54:03.938Z,48.90
2023-02-21T01:55:03.902Z,47.60
2023-02-21T01:56:03.877Z,49.10
2023-02-21T01:57:03.907Z,49.80
2023-02-21T01:58:04.775Z,51.10
2023-02-21T01:59:03.860Z,49.90
2023-02-21T02:00:03.845Z,50.00
2023-02-21T02:01:03.829Z,48.70
2023-02-21T02:02:03.838Z,49.40
2023-02-21T02:03:03.860Z,50.10
2023-02-21T02:04:05.960Z,51.00
2023-02-21T02:05:03.793Z,50.20
2023-02-21T02:06:03.799Z,50.40
2023-02-21T02:07:03.755Z,49.80
2023-02-21T02:08:03.768Z,50.80
2023-02-21T02:09:03.763Z,50.00
2023-02-21T02:10:03.723Z,50.10
2023-02-21T02:11:03.738Z,50.30
2023-02-21T02:12:03.707Z,48.60
2023-02-21T02:13:03.731Z,49.80
2023-02-21T02:14:03.710Z,50.60
2023-02-21T02:15:03.709Z,51.30
2023-02-21T02:16:03.776Z,49.30
2023-02-21T02:17:03.882Z,50.10
2023-02-21T02:18:03.671Z,48.90
2023-02-21T02:19:03.639Z,51.10
2023-02-21T02:20:03.636Z,50.80
2023-02-21T02:21:03.616Z,49.70
2023-02-21T02:22:03.653Z,51.00
2023-02-21T02:23:03.590Z,50.70
2023-02-21T02:24:03.623Z,49.60
2023-02-21T02:25:03.592Z,50.60
2023-02-21T02:26:03.578Z,50.60
2023-02-21T02:27:03.580Z,51.40
2023-02-21T02:28:03.531Z,51.10
2023-02-21T02:29:03.534Z,51.10
2023-02-21T02:30:03.554Z,50.70
2023-02-21T02:31:03.605Z,51.00
2023-02-21T02:32:03.642Z,50.20
2023-02-21T02:33:03.513Z,49.90
2023-02-21T02:34:03.480Z,49.90
2023-02-21T02:35:03.485Z,51.60
2023-02-21T02:36:03.444Z,51.90
2023-02-21T02:37:03.504Z,51.30
2023-02-21T02:38:03.561Z,50.40
2023-02-21T02:39:03.440Z,52.30
2023-02-21T02:40:03.416Z,50.50
2023-02-21T02:41:03.418Z,51.70
2023-02-21T02:42:03.428Z,51.40
2023-02-21T02:43:03.380Z,50.80
2023-02-21T02:44:03.384Z,50.80
2023-02-21T02:45:03.375Z,51.60
2023-02-21T02:46:03.369Z,52.40
2023-02-21T02:47:03.343Z,51.10
2023-02-21T02:48:03.353Z,51.10
2023-02-21T02:49:03.347Z,52.00
2023-02-21T02:50:03.344Z,51.80
2023-02-21T02:51:03.312Z,53.00
2023-02-21T02:52:03.289Z,52.90
2023-02-21T02:53:03.301Z,53.00
2023-02-21T02:54:03.309Z,52.90
2023-02-21T02:55:03.292Z,53.30
2023-02-21T02:56:03.300Z,54.70
2023-02-21T02:57:03.233Z,52.20
2023-02-21T02:58:03.219Z,52.50
2023-02-21T02:59:03.205Z,54.20
2023-02-21T03:00:03.220Z,53.40
2023-02-21T03:01:03.230Z,53.50
2023-02-21T03:02:03.206Z,53.40
2023-02-21T03:03:03.177Z,53.60
2023-02-21T03:04:03.148Z,54.20
2023-02-21T03:05:03.196Z,53.70
2023-02-21T03:06:03.150Z,54.30
2023-02-21T03:07:03.145Z,52.90
2023-02-21T03:08:03.125Z,53.90
2023-02-21T03:09:03.110Z,54.10
2023-02-21T03:10:03.104Z,54.00
2023-02-21T03:11:03.118Z,53.30
2023-02-21T03:12:03.078Z,54.20
2023-02-21T03:13:03.057Z,53.40
2023-02-21T03:14:03.052Z,54.20
2023-02-21T03:15:03.052Z,54.00
2023-02-21T03:16:03.064Z,55.20
2023-02-21T03:17:03.033Z,56.00
2023-02-21T03:18:03.008Z,55.40
2023-02-21T03:19:03.043Z,54.20
2023-02-21T03:20:02.986Z,53.10
2023-02-21T03:21:02.990Z,54.50
2023-02-21T03:22:02.955Z,54.80
2023-02-21T03:23:02.986Z,54.90
2023-02-21T03:24:02.958Z,53.80
2023-02-21T03:25:02.925Z,54.80
2023-02-21T03:26:02.938Z,56.30
2023-02-21T03:27:02.956Z,56.60
2023-02-21T03:28:02.915Z,56.30
2023-02-21T03:29:02.894Z,56.90
2023-02-21T03:30:02.914Z,56.30
2023-02-21T03:31:02.892Z,56.90
2023-02-21T03:32:02.991Z,54.90
2023-02-21T03:33:02.883Z,57.30
2023-02-21T03:34:02.827Z,55.60
2023-02-21T03:35:02.839Z,55.80
2023-02-21T03:36:02.837Z,56.00
2023-02-21T03:37:02.819Z,55.70
2023-02-21T03:38:02.824Z,56.00
2023-02-21T03:39:02.812Z,55.50
2023-02-21T03:40:02.762Z,56.60
2023-02-21T03:41:02.776Z,57.30
2023-02-21T03:42:02.773Z,58.40
2023-02-21T03:43:02.783Z,58.80
2023-02-21T03:44:02.723Z,59.10
2023-02-21T03:45:02.730Z,57.80
2023-02-21T03:46:02.732Z,59.60
2023-02-21T03:47:02.728Z,57.50
2023-02-21T03:48:02.738Z,58.00
2023-02-21T03:49:02.726Z,57.90
2023-02-21T03:50:02.680Z,59.70
2023-02-21T03:51:02.671Z,58.20
2023-02-21T03:52:02.658Z,60.00
2023-02-21T03:53:02.669Z,59.90
2023-02-21T03:54:02.637Z,59.80
2023-02-21T03:55:02.707Z,59.00
2023-02-21T03:56:02.610Z,59.70
2023-02-21T03:57:02.612Z,59.70
2023-02-21T03:58:02.608Z,60.20
2023-02-21T03:59:02.668Z,60.80
2023-02-21T04:00:02.600Z,59.50
2023-02-21T04:01:02.651Z,60.20
2023-02-21T04:02:02.696Z,60.80
2023-02-21T04:03:02.543Z,58.50
2023-02-21T04:04:02.528Z,60.70
2023-02-21T04:05:02.529Z,61.20
2023-02-21T04:06:02.526Z,60.20
2023-02-21T04:07:02.500Z,61.50
2023-02-21T04:08:02.504Z,60.20
2023-02-21T04:09:02.495Z,61.20
2023-02-21T04:10:02.506Z,61.80
2023-02-21T04:11:02.472Z,60.50
2023-02-21T04:12:02.457Z,59.30
2023-02-21T04:13:02.448Z,62.50
2023-02-21T04:14:02.438Z,59.80
2023-02-21T04:15:02.406Z,60.50
2023-02-21T04:16:02.468Z,60.30
2023-02-21T04:17:02.411Z,62.00
2023-02-21T04:18:02.547Z,60.60
2023-02-21T04:19:02.392Z,61.00
2023-02-21T04:20:02.350Z,62.30
2023-02-21T04:21:02.373Z,62.00
2023-02-21T04:22:02.387Z,62.90
2023-02-21T04:23:03.766Z,60.90
2023-02-21T04:24:02.364Z,62.40
2023-02-21T04:25:02.339Z,62.50
2023-02-21T04:26:02.307Z,61.00
2023-02-21T04:27:02.319Z,62.40
2023-02-21T04:28:02.293Z,62.70
2023-02-21T04:29:02.284Z,63.60
2023-02-21T04:30:02.258Z,62.00
2023-02-21T04:31:02.266Z,64.60
2023-02-21T04:32:02.471Z,63.70
2023-02-21T04:33:02.237Z,62.30
2023-02-21T04:34:11.360Z,62.30
2023-02-21T04:35:02.256Z,62.60
2023-02-21T04:36:02.211Z,63.60
2023-02-21T04:37:02.205Z,63.70
2023-02-21T04:38:02.190Z,61.70
2023-02-21T04:39:02.175Z,62.00
2023-02-21T04:40:02.152Z,62.40
2023-02-21T04:41:02.175Z,62.20
2023-02-21T04:42:02.162Z,60.90
2023-02-21T04:43:02.156Z,61.80
2023-02-21T04:44:02.151Z,61.80
2023-02-21T04:45:02.137Z,60.40
2023-02-21T04:46:02.189Z,63.50
2023-02-21T04:47:02.109Z,61.00
2023-02-21T04:48:02.129Z,60.90
2023-02-21T04:49:02.084Z,61.80
2023-02-21T04:50:02.056Z,61.40
2023-02-21T04:51:14.723Z,60.90
2023-02-21T04:52:02.071Z,61.00
2023-02-21T04:53:02.039Z,61.70
2023-02-21T04:54:02.050Z,57.90
2023-02-21T04:55:02.036Z,61.00
2023-02-21T04:56:01.985Z,59.20
2023-02-21T04:57:01.983Z,59.40
2023-02-21T04:58:02.007Z,60.70
2023-02-21T04:59:01.963Z,60.30
2023-02-21T05:00:01.956Z,59.60
2023-02-21T05:01:02.033Z,60.40
2023-02-21T05:02:02.944Z,60.20
2023-02-21T05:03:01.955Z,61.60
2023-02-21T05:04:01.953Z,61.60
2023-02-21T05:05:01.955Z,60.50
2023-02-21T05:06:01.894Z,60.90
2023-02-21T05:07:01.884Z,61.90
2023-02-21T05:08:01.882Z,61.30
2023-02-21T05:09:01.903Z,61.60
2023-02-21T05:10:01.869Z,61.30
2023-02-21T05:11:01.855Z,61.20
2023-02-21T05:12:01.848Z,60.60
2023-02-21T05:13:01.822Z,61.10
2023-02-21T05:14:01.822Z,62.10
2023-02-21T05:15:01.816Z,61.20
2023-02-21T05:16:01.807Z,61.00
2023-02-21T05:17:01.791Z,62.00
2023-02-21T05:18:01.766Z,63.30
2023-02-21T05:19:01.784Z,63.10
2023-02-21T05:20:01.748Z,62.30
2023-02-21T05:21:03.281Z,64.60
2023-02-21T05:22:01.733Z,62.00
2023-02-21T05:23:11.720Z,63.50
2023-02-21T05:24:01.704Z,62.60
2023-02-21T05:25:01.727Z,61.50
2023-02-21T05:26:01.693Z,62.70
2023-02-21T05:27:01.666Z,62.80
2023-02-21T05:28:01.654Z,63.30
2023-02-21T05:29:01.649Z,63.10
2023-02-21T05:30:01.659Z,63.40
2023-02-21T05:31:01.833Z,62.10
2023-02-21T05:32:01.621Z,63.20
2023-02-21T05:33:01.635Z,64.40
2023-02-21T05:34:01.640Z,64.30
2023-02-21T05:35:01.613Z,62.60
2023-02-21T05:36:01.590Z,63.20
2023-02-21T05:37:01.575Z,63.30
2023-02-21T05:38:01.578Z,64.30
2023-02-21T05:39:01.580Z,63.60
2023-02-21T05:40:01.550Z,63.50
2023-02-21T05:41:01.622Z,62.40
2023-02-21T05:42:01.527Z,64.10
2023-02-21T05:43:01.532Z,65.80
2023-02-21T05:44:01.537Z,64.70
2023-02-21T05:45:01.498Z,63.70
2023-02-21T05:46:01.494Z,66.50
2023-02-21T05:47:01.501Z,64.40
2023-02-21T05:48:01.459Z,63.80
2023-02-21T05:49:01.445Z,64.80
2023-02-21T05:50:01.446Z,64.30
2023-02-21T05:51:01.434Z,65.70
2023-02-21T05:52:01.450Z,65.10
2023-02-21T05:53:01.408Z,64.20
2023-02-21T05:54:01.378Z,64.70
2023-02-21T05:55:01.445Z,64.50
2023-02-21T05:56:01.369Z,64.60
2023-02-21T05:57:01.452Z,65.20
2023-02-21T05:58:01.348Z,65.10
2023-02-21T05:59:01.348Z,64.10
2023-02-21T06:00:01.342Z,64.30
2023-02-21T06:01:01.353Z,62.70
2023-02-21T06:02:01.413Z,62.70
2023-02-21T06:03:04.516Z,61.90
2023-02-21T06:04:01.307Z,63.10
2023-02-21T06:05:01.276Z,64.40
2023-02-21T06:06:01.323Z,63.30
2023-02-21T06:07:01.280Z,62.70
2023-02-21T06:08:01.238Z,64.20
2023-02-21T06:09:01.179Z,63.30
2023-02-21T06:10:01.219Z,64.20
2023-02-21T06:11:01.188Z,64.10
2023-02-21T06:12:01.147Z,64.90
2023-02-21T06:13:01.130Z,63.60
2023-02-21T06:14:01.181Z,65.90
2023-02-21T06:15:01.166Z,65.10
2023-02-21T06:16:01.221Z,65.80
2023-02-21T06:17:01.100Z,65.40
2023-02-21T06:18:01.074Z,66.30
2023-02-21T06:19:01.071Z,67.40
2023-02-21T06:20:01.120Z,65.80
2023-02-21T06:21:01.050Z,66.80
2023-02-21T06:22:01.042Z,65.90
2023-02-21T06:23:01.049Z,67.20
2023-02-21T06:24:01.015Z,67.90
2023-02-21T06:25:01.014Z,67.80
2023-02-21T06:26:01.021Z,66.20
2023-02-21T06:27:00.992Z,68.10
2023-02-21T06:28:00.996Z,67.90
2023-02-21T06:29:00.981Z,67.90
2023-02-21T06:30:00.975Z,66.40
2023-02-21T06:31:00.977Z,68.40
2023-02-21T06:32:01.009Z,68.80
2023-02-21T06:33:00.932Z,71.10
2023-02-21T06:34:00.943Z,68.00
2023-02-21T06:35:00.919Z,69.40
2023-02-21T06:36:00.894Z,70.80
2023-02-21T06:37:00.912Z,68.90
2023-02-21T06:38:00.879Z,68.30
2023-02-21T06:39:00.847Z,70.10
2023-02-21T06:40:00.908Z,69.00
2023-02-21T06:41:00.885Z,70.40
2023-02-21T06:42:00.870Z,70.80
2023-02-21T06:43:00.851Z,69.10
2023-02-21T06:44:00.820Z,69.90
2023-02-21T06:45:00.803Z,57.50
2023-02-21T06:46:00.896Z,58.40
2023-02-21T06:47:00.793Z,57.40
2023-02-21T06:48:00.794Z,56.60
2023-02-21T06:49:00.766Z,59.40
2023-02-21T06:50:00.795Z,57.50
2023-02-21T06:51:00.760Z,57.80
2023-02-21T06:52:00.762Z,58.60
2023-02-21T06:53:00.714Z,56.20
2023-02-21T06:54:00.766Z,56.90
2023-02-21T06:55:00.719Z,57.80
2023-02-21T06:56:00.757Z,58.00
2023-02-21T06:57:00.709Z,57.10
2023-02-21T06:58:00.680Z,57.10
2023-02-21T06:59:00.666Z,57.30
2023-02-21T07:00:00.741Z,57.60
2023-02-21T07:01:00.635Z,57.00
2023-02-21T07:02:00.717Z,56.90
2023-02-21T07:03:00.666Z,57.50
2023-02-21T07:04:00.640Z,58.30
2023-02-21T07:05:00.712Z,57.00
2023-02-21T07:06:00.616Z,56.70
2023-02-21T07:07:00.579Z,56.90
2023-02-21T07:08:00.616Z,56.80
2023-02-21T07:09:00.589Z,58.40
2023-02-21T07:10:00.563Z,57.10
2023-02-21T07:11:00.551Z,54.70
2023-02-21T07:12:00.535Z,55.60
2023-02-21T07:13:00.560Z,55.30
2023-02-21T07:14:00.530Z,56.50
2023-02-21T07:15:00.648Z,56.90
2023-02-21T07:16:00.617Z,56.60
2023-02-21T07:17:00.475Z,56.70
2023-02-21T07:18:00.469Z,56.10
2023-02-21T07:19:00.593Z,56.40
2023-02-21T07:20:00.457Z,55.50
2023-02-21T07:21:00.444Z,55.70
2023-02-21T07:22:00.443Z,57.40
2023-02-21T07:23:00.424Z,56.00
2023-02-21T07:24:00.424Z,57.50
2023-02-21T07:25:00.411Z,56.70
2023-02-21T07:26:00.440Z,58.10
2023-02-21T07:27:00.366Z,58.60
2023-02-21T07:28:00.357Z,56.60
2023-02-21T07:29:01.027Z,57.20
2023-02-21T07:30:00.369Z,56.50
2023-02-21T07:31:00.347Z,57.40
2023-02-21T07:32:00.363Z,55.50
2023-02-21T07:33:00.320Z,57.20
2023-02-21T07:34:00.306Z,55.40
2023-02-21T07:35:00.298Z,57.10
2023-02-21T07:36:00.289Z,57.00
2023-02-21T07:37:00.262Z,57.00
2023-02-21T07:38:00.268Z,56.50
2023-02-21T07:39:00.267Z,55.40
2023-02-21T07:40:00.268Z,56.60
2023-02-21T07:41:00.258Z,56.70
2023-02-21T07:42:00.266Z,57.10
2023-02-21T07:43:00.191Z,55.40
2023-02-21T07:44:00.192Z,55.90
2023-02-21T07:45:00.192Z,57.10
2023-02-21T07:46:00.331Z,58.80
2023-02-21T07:47:00.172Z,56.00
2023-02-21T07:48:00.152Z,55.70
2023-02-21T07:49:00.205Z,58.50
2023-02-21T07:50:00.930Z,56.90
2023-02-21T07:51:00.133Z,57.00
2023-02-21T07:52:00.130Z,57.90
2023-02-21T07:53:00.114Z,56.60
2023-02-21T07:54:00.127Z,57.80
2023-02-21T07:55:00.104Z,58.80
2023-02-21T07:56:00.114Z,59.00
2023-02-21T07:57:00.076Z,57.40
2023-02-21T07:58:00.038Z,58.20
2023-02-21T07:59:00.028Z,58.30
2023-02-21T08:00:00.043Z,56.80
2023-02-21T08:01:00.014Z,57.10
2023-02-21T08:02:00.082Z,56.80
2023-02-21T08:02:59.996Z,57.50
2023-02-21T08:04:00.035Z,57.60
2023-02-21T08:04:59.992Z,56.40
2023-02-21T08:05:59.969Z,56.20
2023-02-21T08:06:59.985Z,55.80
2023-02-21T08:07:59.956Z,55.50
2023-02-21T08:08:59.937Z,55.00
2023-02-21T08:09:59.939Z,55.30
2023-02-21T08:10:59.922Z,55.00
2023-02-21T08:11:59.898Z,55.10
2023-02-21T08:12:59.904Z,55.70
2023-02-21T08:13:59.888Z,55.10
2023-02-21T08:14:59.880Z,56.00
2023-02-21T08:15:59.955Z,55.00
2023-02-21T08:16:59.856Z,55.40
2023-02-21T08:17:59.894Z,56.10
2023-02-21T08:18:59.846Z,54.70
2023-02-21T08:19:59.829Z,56.50
2023-02-21T08:20:59.793Z,55.70
2023-02-21T08:21:59.793Z,55.50
2023-02-21T08:22:59.802Z,55.40
2023-02-21T08:23:59.801Z,55.30
2023-02-21T08:24:59.758Z,55.20
2023-02-21T08:25:59.769Z,53.60
2023-02-21T08:26:59.806Z,54.20
2023-02-21T08:27:59.748Z,55.40
2023-02-21T08:28:59.717Z,55.30
2023-02-21T08:29:59.715Z,55.20
2023-02-21T08:30:59.724Z,54.70
2023-02-21T08:31:59.755Z,54.10
2023-02-21T08:32:59.656Z,51.50
2023-02-21T08:33:59.669Z,51.70
2023-02-21T08:34:59.672Z,50.30
2023-02-21T08:35:59.659Z,52.80
2023-02-21T08:36:59.630Z,50.60
2023-02-21T08:37:59.642Z,52.80
2023-02-21T08:38:59.618Z,52.60
2023-02-21T08:39:59.627Z,51.40
2023-02-21T08:40:59.586Z,51.90
2023-02-21T08:41:59.585Z,49.60
2023-02-21T08:42:59.590Z,50.80
2023-02-21T08:43:59.564Z,50.90
2023-02-21T08:44:59.571Z,49.60
2023-02-21T08:45:59.556Z,50.30
2023-02-21T08:46:59.644Z,48.00
2023-02-21T08:47:59.528Z,47.90
2023-02-21T08:48:59.498Z,48.90
2023-02-21T08:49:59.520Z,50.50
2023-02-21T08:50:59.493Z,49.60
2023-02-21T08:51:59.541Z,50.40
2023-02-21T08:52:59.459Z,50.90
2023-02-21T08:53:59.459Z,51.40
2023-02-21T08:54:59.446Z,50.60
2023-02-21T08:55:59.447Z,51.50
2023-02-21T08:56:59.419Z,51.20
2023-02-21T08:57:59.437Z,51.00
2023-02-21T08:58:59.462Z,50.50
2023-02-21T08:59:59.391Z,51.30
2023-02-21T09:00:59.440Z,50.80
2023-02-21T09:01:59.466Z,51.00
2023-02-21T09:02:59.380Z,50.70
2023-02-21T09:03:59.367Z,49.50
2023-02-21T09:04:59.330Z,48.80
2023-02-21T09:05:59.337Z,54.00
2023-02-21T09:06:59.357Z,53.60
2023-02-21T09:07:59.335Z,54.60
2023-02-21T09:08:59.294Z,54.20
2023-02-21T09:10:01.156Z,55.30
2023-02-21T09:10:59.289Z,55.10
2023-02-21T09:11:59.294Z,54.60
2023-02-21T09:12:59.266Z,52.60
2023-02-21T09:13:59.239Z,52.80
2023-02-21T09:14:59.250Z,53.30
2023-02-21T09:15:59.236Z,52.20
2023-02-21T09:16:59.202Z,54.40
2023-02-21T09:17:59.203Z,52.20
2023-02-21T09:18:59.386Z,52.20
2023-02-21T09:19:59.192Z,53.20
2023-02-21T09:20:59.207Z,51.70
2023-02-21T09:22:01.567Z,51.60
2023-02-21T09:22:59.136Z,50.70
2023-02-21T09:23:59.208Z,50.60
2023-02-21T09:24:59.136Z,49.90
2023-02-21T09:25:59.131Z,50.40
2023-02-21T09:26:59.138Z,48.10
2023-02-21T09:27:59.112Z,49.10
2023-02-21T09:28:59.116Z,47.70
2023-02-21T09:29:59.150Z,50.20
2023-02-21T09:30:59.100Z,53.80
2023-02-21T09:31:59.127Z,50.90
2023-02-21T09:32:59.062Z,50.40
2023-02-21T09:33:59.038Z,49.20
2023-02-21T09:34:59.034Z,52.00
2023-02-21T09:35:59.069Z,53.80
2023-02-21T09:36:59.023Z,49.30
2023-02-21T09:37:59.015Z,49.30
2023-02-21T09:38:59.987Z,47.70
2023-02-21T09:39:58.991Z,44.80
2023-02-21T09:40:58.959Z,47.10
2023-02-21T09:41:58.945Z,47.80
2023-02-21T09:42:58.975Z,45.30
2023-02-21T09:43:58.949Z,46.60
2023-02-21T09:44:58.940Z,45.10
2023-02-21T09:45:59.649Z,46.90
2023-02-21T09:46:58.894Z,50.70
2023-02-21T09:47:58.941Z,55.40
2023-02-21T09:48:58.901Z,49.50
2023-02-21T09:49:58.902Z,45.40
2023-02-21T09:50:58.853Z,43.60
2023-02-21T09:51:58.862Z,44.10
2023-02-21T09:52:58.886Z,44.00
2023-02-21T09:53:58.820Z,43.90
2023-02-21T09:54:58.810Z,54.00
2023-02-21T09:55:58.821Z,49.00
2023-02-21T09:56:58.798Z,43.10
2023-02-21T09:57:58.770Z,43.40
2023-02-21T09:58:58.790Z,42.20
2023-02-21T09:59:58.808Z,40.80
2023-02-21T10:00:58.830Z,38.40
2023-02-21T10:01:58.760Z,38.80
2023-02-21T10:02:58.754Z,38.10
2023-02-21T10:03:58.751Z,36.90
2023-02-21T10:04:58.770Z,37.70
2023-02-21T10:05:58.717Z,37.40
2023-02-21T10:06:58.698Z,38.10
2023-02-21T10:07:58.721Z,36.80
2023-02-21T10:08:58.657Z,37.00
2023-02-21T10:09:58.713Z,36.30
2023-02-21T10:10:58.660Z,37.90
2023-02-21T10:11:58.644Z,36.70
2023-02-21T10:12:58.662Z,36.50
2023-02-21T10:13:58.627Z,36.20
2023-02-21T10:14:58.592Z,36.40
2023-02-21T10:15:58.601Z,36.30
2023-02-21T10:16:58.578Z,36.70
2023-02-21T10:17:58.600Z,36.40
2023-02-21T10:18:58.590Z,34.70
2023-02-21T10:19:59.391Z,33.90
2023-02-21T10:20:58.547Z,34.50
2023-02-21T10:21:58.538Z,35.80
2023-02-21T10:22:58.529Z,33.60
2023-02-21T10:23:58.772Z,36.30
2023-02-21T10:24:58.502Z,34.30
2023-02-21T10:25:58.529Z,33.30
2023-02-21T10:26:58.500Z,33.40
2023-02-21T10:27:58.474Z,34.00
2023-02-21T10:28:58.479Z,33.50
2023-02-21T10:29:58.479Z,35.30
2023-02-21T10:30:58.559Z,34.70
2023-02-21T10:31:58.476Z,34.50
2023-02-21T10:32:58.445Z,35.10
2023-02-21T10:33:58.412Z,34.90
2023-02-21T10:34:58.427Z,35.10
2023-02-21T10:35:58.401Z,34.30
2023-02-21T10:36:58.443Z,35.70
2023-02-21T10:37:58.373Z,34.40
2023-02-21T10:38:58.369Z,35.60
2023-02-21T10:39:58.367Z,35.20
2023-02-21T10:40:58.361Z,34.80
2023-02-21T10:41:58.324Z,32.60
2023-02-21T10:42:58.318Z,32.40
2023-02-21T10:43:58.316Z,33.00
2023-02-21T10:44:58.319Z,34.00
2023-02-21T10:45:58.363Z,33.20
2023-02-21T10:46:58.272Z,32.50
2023-02-21T10:47:58.299Z,32.30
2023-02-21T10:48:58.256Z,33.50
2023-02-21T10:49:58.314Z,33.00
2023-02-21T10:50:58.263Z,33.70
2023-02-21T10:51:58.208Z,33.80
2023-02-21T10:52:58.290Z,32.00
2023-02-21T10:53:58.214Z,32.60
2023-02-21T10:54:58.211Z,32.00
2023-02-21T10:55:58.203Z,30.80
2023-02-21T10:56:58.237Z,31.90
2023-02-21T10:57:58.221Z,31.20
2023-02-21T10:58:58.155Z,30.80
2023-02-21T10:59:58.138Z,29.60
2023-02-21T11:00:58.165Z,29.00
2023-02-21T11:01:58.137Z,28.30
2023-02-21T11:02:58.232Z,27.60
2023-02-21T11:03:58.111Z,27.60
2023-02-21T11:04:58.123Z,26.80
2023-02-21T11:05:58.116Z,26.80
2023-02-21T11:06:58.092Z,26.40
2023-02-21T11:07:58.106Z,26.80
2023-02-21T11:08:58.097Z,26.00
2023-02-21T11:09:58.086Z,26.40
2023-02-21T11:10:58.090Z,25.00
2023-02-21T11:11:58.058Z,25.00
2023-02-21T11:12:58.041Z,25.70
2023-02-21T11:13:57.990Z,24.90
2023-02-21T11:14:58.022Z,25.30
2023-02-21T11:15:58.002Z,24.80
2023-02-21T11:16:57.962Z,25.10
2023-02-21T11:17:57.978Z,25.60
2023-02-21T11:18:57.960Z,25.70
2023-02-21T11:19:58.145Z,25.90
2023-02-21T11:20:57.931Z,24.80
2023-02-21T11:21:57.970Z,25.60
2023-02-21T11:22:57.928Z,25.30
2023-02-21T11:23:57.944Z,24.10
2023-02-21T11:24:57.955Z,23.10
2023-02-21T11:25:57.912Z,24.00
2023-02-21T11:26:57.884Z,23.80
2023-02-21T11:27:57.884Z,23.30
2023-02-21T11:28:57.870Z,23.60
2023-02-21T11:29:57.844Z,23.90
2023-02-21T11:30:57.923Z,24.50
2023-02-21T11:31:57.883Z,24.60
2023-02-21T11:32:57.851Z,25.20
2023-02-21T11:33:57.809Z,25.00
2023-02-21T11:34:57.831Z,26.70
2023-02-21T11:35:57.806Z,26.20
2023-02-21T11:36:57.771Z,26.20
2023-02-21T11:37:57.770Z,25.80
2023-02-21T11:38:57.804Z,26.10
2023-02-21T11:39:57.780Z,26.40
2023-02-21T11:40:57.792Z,26.30
2023-02-21T11:41:57.711Z,25.70
2023-02-21T11:42:57.727Z,26.20
2023-02-21T11:43:57.692Z,26.20
2023-02-21T11:44:57.765Z,26.40
2023-02-21T11:45:57.785Z,26.40
2023-02-21T11:46:57.713Z,26.30
2023-02-21T11:47:57.661Z,26.60
2023-02-21T11:48:57.690Z,26.70
2023-02-21T11:49:57.700Z,26.50
2023-02-21T11:50:57.665Z,26.00
2023-02-21T11:51:57.625Z,27.60
2023-02-21T11:52:57.646Z,26.00
2023-02-21T11:53:57.608Z,26.30
2023-02-21T11:54:57.637Z,25.60
2023-02-21T11:55:57.600Z,26.40
2023-02-21T11:56:57.613Z,26.70
2023-02-21T11:57:57.546Z,26.30
2023-02-21T11:58:57.559Z,24.80
2023-02-21T11:59:57.560Z,25.00
2023-02-21T12:00:57.528Z,25.30
2023-02-21T12:01:57.561Z,25.70
2023-02-21T12:02:57.518Z,25.50
2023-02-21T12:03:57.493Z,25.40
2023-02-21T12:04:57.501Z,26.40
2023-02-21T12:05:57.559Z,25.00
2023-02-21T12:06:57.509Z,25.10
2023-02-21T12:07:57.476Z,25.10
2023-02-21T12:08:57.446Z,24.80
2023-02-21T12:09:57.430Z,24.50
2023-02-21T12:10:57.427Z,23.40
2023-02-21T12:11:57.489Z,25.60
2023-02-21T12:12:57.444Z,24.60
2023-02-21T12:13:57.409Z,24.10
2023-02-21T12:14:57.425Z,30.60
2023-02-21T12:15:57.449Z,37.20
2023-02-21T12:16:57.377Z,78.10
2023-02-21T12:17:57.347Z,55.70
2023-02-21T12:18:57.347Z,32.60
2023-02-21T12:19:57.336Z,32.90
2023-02-21T12:20:57.327Z,36.00
2023-02-21T12:21:57.317Z,27.50
2023-02-21T12:22:57.346Z,29.10
2023-02-21T12:23:57.316Z,28.20
2023-02-21T12:24:57.317Z,29.20
2023-02-21T12:25:57.283Z,33.10
2023-02-21T12:26:57.255Z,35.00
2023-02-21T12:27:57.267Z,36.10
2023-02-21T12:28:57.236Z,36.30
2023-02-21T12:29:57.210Z,35.50
2023-02-21T12:30:57.296Z,37.20
2023-02-21T12:31:57.366Z,36.90
2023-02-21T12:32:57.207Z,35.30
2023-02-21T12:33:57.215Z,34.90
2023-02-21T12:34:57.185Z,34.50
2023-02-21T12:35:57.228Z,34.20
2023-02-21T12:36:57.179Z,34.20
2023-02-21T12:37:57.124Z,33.00
2023-02-21T12:38:57.157Z,33.00
2023-02-21T12:39:57.114Z,31.20
2023-02-21T12:40:57.130Z,30.30
2023-02-21T12:41:57.161Z,30.10
2023-02-21T12:42:57.172Z,29.00
2023-02-21T12:43:57.102Z,29.10
2023-02-21T12:44:57.089Z,27.80
2023-02-21T12:45:57.057Z,27.00
2023-02-21T12:46:57.078Z,25.90
2023-02-21T12:47:57.029Z,26.10
2023-02-21T12:48:57.066Z,25.60
2023-02-21T12:49:57.007Z,25.10
2023-02-21T12:50:57.026Z,25.90
2023-02-21T12:51:56.994Z,25.20